createdAt,value
2022-11-16T00:01:32.449Z,98386.20
2022-11-16T00:04:02.959Z,98387.60
2022-11-16T00:06:31.602Z,98387.08
2022-11-16T00:09:21.964Z,98388.52
2022-11-16T00:11:52.719Z,98385.59
2022-11-16T00:14:22.597Z,98386.06
2022-11-16T00:16:51.284Z,98381.84
2022-11-16T00:19:19.973Z,98372.39
2022-11-16T00:21:48.552Z,98366.75
2022-11-16T00:24:18.739Z,98367.06
2022-11-16T00:26:47.840Z,98367.47
2022-11-16T00:29:19.226Z,98366.02
2022-11-16T00:31:48.429Z,98365.81
2022-11-16T00:34:17.656Z,98358.67
2022-11-16T00:36:46.932Z,98356.41
2022-11-16T00:39:16.794Z,98357.19
2022-11-16T00:41:51.148Z,98356.73
2022-11-16T00:44:19.733Z,98358.34
2022-11-16T00:46:48.596Z,98361.13
2022-11-16T00:49:19.707Z,98358.96
2022-11-16T00:51:47.944Z,98356.69
2022-11-16T00:54:16.868Z,98356.09
2022-11-16T00:56:45.854Z,98353.56
2022-11-16T00:59:16.218Z,98350.50
2022-11-16T01:01:47.312Z,98346.34
2022-11-16T01:04:15.806Z,98346.63
2022-11-16T01:06:44.634Z,98342.30
2022-11-16T01:09:13.337Z,98341.58
2022-11-16T01:12:00.100Z,98339.61
2022-11-16T01:14:30.912Z,98343.83
2022-11-16T01:17:01.689Z,98335.58
2022-11-16T01:19:30.608Z,98333.14
2022-11-16T01:21:59.515Z,98331.79
2022-11-16T01:24:28.517Z,98333.60
2022-11-16T01:26:58.254Z,98329.39
2022-11-16T01:29:31.147Z,98323.58
2022-11-16T01:32:01.792Z,98317.81
2022-11-16T01:34:30.219Z,98314.67
2022-11-16T01:37:05.833Z,98306.42
2022-11-16T01:39:37.506Z,98300.17
2022-11-16T01:42:06.670Z,98301.23
2022-11-16T01:44:35.308Z,98294.91
2022-11-16T01:47:15.929Z,98300.27
2022-11-16T01:49:49.102Z,98304.31
2022-11-16T01:52:33.446Z,98301.01
2022-11-16T01:55:02.754Z,98300.02
2022-11-16T01:57:42.939Z,98301.04
2022-11-16T02:00:12.772Z,98305.70
2022-11-16T02:03:05.193Z,98298.10
2022-11-16T02:06:11.397Z,98290.67
2022-11-16T02:09:08.146Z,98289.11
2022-11-16T02:12:04.208Z,98290.01
2022-11-16T02:14:59.901Z,98289.08
2022-11-16T02:17:47.437Z,98294.76
2022-11-16T02:20:37.438Z,98296.75
2022-11-16T02:23:17.092Z,98296.05
2022-11-16T02:26:01.383Z,98293.36
2022-11-16T02:28:54.726Z,98291.85
2022-11-16T02:31:30.979Z,98283.02
2022-11-16T02:34:00.936Z,98278.73
2022-11-16T02:36:29.427Z,98280.61
2022-11-16T02:39:05.271Z,98285.14
2022-11-16T02:41:39.951Z,98280.69
2022-11-16T02:44:20.269Z,98266.67
2022-11-16T02:46:57.256Z,98267.58
2022-11-16T02:49:28.329Z,98268.73
2022-11-16T02:51:58.249Z,98270.31
2022-11-16T02:54:28.192Z,98266.44
2022-11-16T02:57:03.592Z,98258.27
2022-11-16T02:59:43.107Z,98254.79
2022-11-16T03:03:07.331Z,98253.77
2022-11-16T03:05:46.424Z,98246.54
2022-11-16T03:08:28.666Z,98242.58
2022-11-16T03:11:22.002Z,98247.69
2022-11-16T03:13:52.658Z,98248.06
2022-11-16T03:16:27.829Z,98247.11
2022-11-16T03:19:00.869Z,98239.59
2022-11-16T03:21:37.676Z,98240.01
2022-11-16T03:24:07.714Z,98234.95
2022-11-16T03:26:45.493Z,98233.06
2022-11-16T03:29:26.136Z,98232.65
2022-11-16T03:32:18.207Z,98230.23
2022-11-16T03:34:54.213Z,98223.47
2022-11-16T03:37:24.913Z,98222.89
2022-11-16T03:39:56.013Z,98222.69
2022-11-16T03:42:27.068Z,98223.84
2022-11-16T03:44:56.509Z,98225.54
2022-11-16T03:47:26.411Z,98227.67
2022-11-16T03:49:54.658Z,98226.31
2022-11-16T03:52:25.277Z,98235.55
2022-11-16T03:54:53.784Z,98229.02
2022-11-16T03:57:22.116Z,98226.77
2022-11-16T03:59:55.942Z,98225.49
2022-11-16T04:02:24.153Z,98223.83
2022-11-16T04:05:11.941Z,98222.95
2022-11-16T04:07:58.874Z,98221.27
2022-11-16T04:10:45.712Z,98217.79
2022-11-16T04:13:34.466Z,98221.02
2022-11-16T04:16:21.068Z,98216.52
2022-11-16T04:19:07.908Z,98217.66
2022-11-16T04:21:59.979Z,98220.23
2022-11-16T04:24:35.770Z,98209.66
2022-11-16T04:27:26.449Z,98207.33
2022-11-16T04:29:57.925Z,98211.13
2022-11-16T04:32:45.882Z,98213.11
2022-11-16T04:35:33.113Z,98213.06
2022-11-16T04:38:01.607Z,98213.27
2022-11-16T04:40:34.042Z,98213.56
2022-11-16T04:43:04.556Z,98212.02
2022-11-16T04:45:54.335Z,98212.50
2022-11-16T04:48:26.404Z,98210.66
2022-11-16T04:50:55.401Z,98217.92
2022-11-16T04:53:27.360Z,98215.26
2022-11-16T04:56:25.018Z,98212.35
2022-11-16T04:58:54.118Z,98218.36
2022-11-16T05:01:42.580Z,98218.23
2022-11-16T05:04:11.706Z,98211.99
2022-11-16T05:06:39.845Z,98209.27
2022-11-16T05:09:08.357Z,98206.61
2022-11-16T05:11:37.107Z,98206.29
2022-11-16T05:14:06.305Z,98208.25
2022-11-16T05:16:38.144Z,98208.29
2022-11-16T05:19:25.063Z,98203.15
2022-11-16T05:21:53.473Z,98204.09
2022-11-16T05:24:33.718Z,98196.33
2022-11-16T05:27:05.815Z,98192.65
2022-11-16T05:29:34.985Z,98189.88
2022-11-16T05:32:05.249Z,98188.66
2022-11-16T05:34:34.229Z,98193.27
2022-11-16T05:37:03.233Z,98191.53
2022-11-16T05:39:31.827Z,98192.11
2022-11-16T05:42:00.192Z,98192.53
2022-11-16T05:44:28.736Z,98191.71
2022-11-16T05:46:57.163Z,98191.59
2022-11-16T05:49:25.769Z,98187.38
2022-11-16T05:51:54.499Z,98188.88
2022-11-16T05:54:27.267Z,98186.56
2022-11-16T05:56:57.538Z,98189.41
2022-11-16T05:59:25.840Z,98192.92
2022-11-16T06:01:56.006Z,98192.50
2022-11-16T06:04:24.465Z,98190.70
2022-11-16T06:06:54.305Z,98190.91
2022-11-16T06:09:22.866Z,98194.00
2022-11-16T06:11:51.132Z,98195.67
2022-11-16T06:14:19.263Z,98194.86
2022-11-16T06:16:47.465Z,98193.19
2022-11-16T06:19:15.672Z,98191.80
2022-11-16T06:21:43.757Z,98189.11
2022-11-16T06:24:19.190Z,98183.73
2022-11-16T06:26:47.469Z,98179.63
2022-11-16T06:29:15.808Z,98178.41
2022-11-16T06:31:44.489Z,98174.88
2022-11-16T06:34:13.155Z,98171.66
2022-11-16T06:36:41.341Z,98167.98
2022-11-16T06:39:11.384Z,98166.19
2022-11-16T06:41:41.581Z,98160.70
2022-11-16T06:44:11.204Z,98156.48
2022-11-16T06:46:42.633Z,98149.46
2022-11-16T06:49:11.089Z,98146.64
2022-11-16T06:51:39.462Z,98146.73
2022-11-16T06:54:09.048Z,98151.00
2022-11-16T06:56:37.234Z,98151.58
2022-11-16T06:59:05.821Z,98150.52
2022-11-16T07:01:34.144Z,98150.29
2022-11-16T07:04:06.222Z,98145.31
2022-11-16T07:06:34.853Z,98144.31
2022-11-16T07:09:06.165Z,98141.17
2022-11-16T07:11:34.847Z,98138.60
2022-11-16T07:14:03.712Z,98133.80
2022-11-16T07:16:32.201Z,98133.11
2022-11-16T07:19:02.634Z,98129.75
2022-11-16T07:21:32.083Z,98135.84
2022-11-16T07:24:01.564Z,98136.83
2022-11-16T07:26:31.262Z,98137.02
2022-11-16T07:29:03.968Z,98138.21
2022-11-16T07:31:32.324Z,98139.52
2022-11-16T07:34:19.835Z,98140.73
2022-11-16T07:37:01.817Z,98141.21
2022-11-16T07:39:30.717Z,98145.95
2022-11-16T07:41:59.178Z,98142.70
2022-11-16T07:44:46.124Z,98141.44
2022-11-16T07:47:14.984Z,98140.52
2022-11-16T07:49:43.417Z,98142.73
2022-11-16T07:52:15.807Z,98142.69
2022-11-16T07:55:05.704Z,98144.58
2022-11-16T07:57:34.722Z,98141.60
2022-11-16T08:00:06.513Z,98143.02
2022-11-16T08:02:46.839Z,98139.52
2022-11-16T08:05:19.050Z,98144.09
2022-11-16T08:07:47.302Z,98147.55
2022-11-16T08:10:15.849Z,98146.57
2022-11-16T08:12:43.948Z,98147.80
2022-11-16T08:15:14.195Z,98143.96
2022-11-16T08:17:42.784Z,98146.69
2022-11-16T08:20:12.725Z,98148.70
2022-11-16T08:22:41.328Z,98149.55
2022-11-16T08:25:09.779Z,98150.29
2022-11-16T08:27:39.258Z,98152.94
2022-11-16T08:30:10.003Z,98152.00
2022-11-16T08:32:39.150Z,98151.34
2022-11-16T08:35:07.841Z,98152.62
2022-11-16T08:37:36.197Z,98151.64
2022-11-16T08:40:05.185Z,98154.41
2022-11-16T08:42:42.304Z,98153.27
2022-11-16T08:45:12.329Z,98152.85
2022-11-16T08:47:41.861Z,98154.15
2022-11-16T08:50:10.115Z,98157.64
2022-11-16T08:52:38.861Z,98160.33
2022-11-16T08:55:07.399Z,98161.48
2022-11-16T08:57:35.633Z,98161.92
2022-11-16T09:00:08.133Z,98162.45
2022-11-16T09:02:36.654Z,98161.67
2022-11-16T09:05:05.582Z,98163.83
2022-11-16T09:07:34.239Z,98166.25
2022-11-16T09:10:02.428Z,98163.88
2022-11-16T09:12:30.624Z,98161.79
2022-11-16T09:14:59.189Z,98159.68
2022-11-16T09:17:27.231Z,98157.06
2022-11-16T09:19:55.359Z,98153.80
2022-11-16T09:22:24.042Z,98152.95
2022-11-16T09:24:52.067Z,98148.79
2022-11-16T09:27:20.212Z,98147.43
2022-11-16T09:29:49.731Z,98144.05
2022-11-16T09:32:18.000Z,98134.70
2022-11-16T09:34:46.307Z,98136.48
2022-11-16T09:37:15.445Z,98135.88
2022-11-16T09:39:43.479Z,98135.35
2022-11-16T09:42:34.131Z,98127.55
2022-11-16T09:45:12.261Z,98124.73
2022-11-16T09:47:45.534Z,98121.59
2022-11-16T09:50:29.763Z,98126.03
2022-11-16T09:53:06.292Z,98121.62
2022-11-16T09:55:40.961Z,98116.61
2022-11-16T09:58:16.253Z,98111.55
2022-11-16T10:00:51.203Z,98112.07
2022-11-16T10:03:19.492Z,98114.73
2022-11-16T10:06:00.828Z,98114.69
2022-11-16T10:08:42.572Z,98111.49
2022-11-16T10:11:29.176Z,98110.77
2022-11-16T10:14:18.839Z,98105.98
2022-11-16T10:17:11.678Z,98106.52
2022-11-16T10:19:47.031Z,98101.19
2022-11-16T10:23:05.002Z,98097.67
2022-11-16T10:25:44.523Z,98095.46
2022-11-16T10:28:15.548Z,98094.35
2022-11-16T10:30:54.761Z,98091.41
2022-11-16T10:33:26.997Z,98094.92
2022-11-16T10:35:56.063Z,98097.61
2022-11-16T10:38:29.034Z,98095.20
2022-11-16T10:41:18.782Z,98092.18
2022-11-16T10:43:48.441Z,98085.62
2022-11-16T10:46:33.949Z,98083.29
2022-11-16T10:49:14.507Z,98079.42
2022-11-16T10:51:43.653Z,98077.89
2022-11-16T10:54:16.395Z,98079.52
2022-11-16T10:56:47.182Z,98080.05
2022-11-16T10:59:18.881Z,98078.73
2022-11-16T11:01:57.947Z,98074.11
2022-11-16T11:04:28.295Z,98073.05
2022-11-16T11:06:59.271Z,98072.47
2022-11-16T11:09:32.984Z,98069.29
2022-11-16T11:12:39.324Z,98069.78
2022-11-16T11:15:27.039Z,98069.73
2022-11-16T11:18:19.897Z,98066.60
2022-11-16T11:20:54.208Z,98065.58
2022-11-16T11:23:25.318Z,98065.98
2022-11-16T11:26:00.514Z,98071.91
2022-11-16T11:28:32.056Z,98070.15
2022-11-16T11:31:12.117Z,98072.84
2022-11-16T11:33:49.639Z,98074.59
2022-11-16T11:36:21.814Z,98076.26
2022-11-16T11:39:03.500Z,98075.09
2022-11-16T11:41:37.864Z,98074.35
2022-11-16T11:44:16.383Z,98073.29
2022-11-16T11:47:42.419Z,98069.86
2022-11-16T11:49:52.503Z,98070.67
2022-11-16T11:53:05.556Z,98072.15
2022-11-16T11:55:34.675Z,98073.77
2022-11-16T11:58:06.043Z,98072.19
2022-11-16T12:00:56.305Z,98069.16
2022-11-16T12:03:43.361Z,98066.84
2022-11-16T12:06:17.546Z,98070.84
2022-11-16T12:09:08.993Z,98065.05
2022-11-16T12:11:57.409Z,98068.08
2022-11-16T12:14:49.434Z,98062.81
2022-11-16T12:17:48.329Z,98058.20
2022-11-16T12:20:29.010Z,98051.51
2022-11-16T12:23:12.240Z,98047.59
2022-11-16T12:26:06.921Z,98047.60
2022-11-16T12:29:03.369Z,98054.16
2022-11-16T12:31:46.499Z,98048.77
2022-11-16T12:34:14.570Z,98050.91
2022-11-16T12:37:00.026Z,98049.14
2022-11-16T12:39:30.751Z,98053.55
2022-11-16T12:42:30.617Z,98055.59
2022-11-16T12:45:32.224Z,98057.16
2022-11-16T12:48:19.767Z,98054.26
2022-11-16T12:51:03.896Z,98055.07
2022-11-16T12:53:32.857Z,98051.31
2022-11-16T12:56:26.955Z,98049.20
2022-11-16T12:59:22.422Z,98051.48
2022-11-16T13:02:13.242Z,98046.63
2022-11-16T13:04:47.477Z,98051.33
2022-11-16T13:07:19.941Z,98046.52
2022-11-16T13:10:14.437Z,98043.02
2022-11-16T13:12:46.111Z,98045.63
2022-11-16T13:15:29.733Z,98047.81
2022-11-16T13:18:01.935Z,98048.80
2022-11-16T13:20:43.946Z,98048.31
2022-11-16T13:23:44.181Z,98050.14
2022-11-16T13:26:23.126Z,98048.77
2022-11-16T13:29:27.609Z,98050.52
2022-11-16T13:32:12.552Z,98049.09
2022-11-16T13:34:41.707Z,98049.50
2022-11-16T13:37:39.500Z,98050.03
2022-11-16T13:40:08.739Z,98047.30
2022-11-16T13:42:45.536Z,98047.22
2022-11-16T13:45:20.798Z,98041.05
2022-11-16T13:47:55.261Z,98042.93
2022-11-16T13:50:34.527Z,98040.08
2022-11-16T13:56:10.248Z,98033.34
2022-11-16T13:58:46.303Z,98031.21
2022-11-16T14:01:15.829Z,98032.15
2022-11-16T14:03:51.735Z,98031.91
2022-11-16T14:06:19.981Z,98029.25
2022-11-16T14:08:51.191Z,98028.92
2022-11-16T14:11:39.542Z,98026.61
2022-11-16T14:14:34.278Z,98025.86
2022-11-16T14:17:02.751Z,98024.73
2022-11-16T14:19:49.384Z,98029.30
2022-11-16T14:22:39.861Z,98028.36
2022-11-16T14:25:42.239Z,98025.42
2022-11-16T14:28:20.372Z,98028.32
2022-11-16T14:31:10.121Z,98029.38
2022-11-16T14:33:39.164Z,98030.85
2022-11-16T14:36:09.946Z,98027.84
2022-11-16T14:38:42.943Z,98026.04
2022-11-16T14:41:22.329Z,98023.96
2022-11-16T14:43:55.368Z,98022.33
2022-11-16T14:46:32.078Z,98021.06
2022-11-16T14:49:01.705Z,98021.48
2022-11-16T14:51:34.827Z,98020.23
2022-11-16T14:54:13.110Z,98018.77
2022-11-16T14:56:59.984Z,98022.66
2022-11-16T14:59:30.852Z,98018.13
2022-11-16T15:02:19.102Z,98026.20
2022-11-16T15:04:51.274Z,98026.32
2022-11-16T15:07:22.540Z,98029.64
2022-11-16T15:09:54.844Z,98030.13
2022-11-16T15:12:41.938Z,98033.76
2022-11-16T15:15:12.846Z,98033.84
2022-11-16T15:17:45.041Z,98037.42
2022-11-16T15:20:20.145Z,98036.39
2022-11-16T15:22:52.139Z,98038.36
2022-11-16T15:26:03.361Z,98037.46
2022-11-16T15:28:33.291Z,98037.82
2022-11-16T15:31:07.237Z,98039.63
2022-11-16T15:33:36.909Z,98038.55
2022-11-16T15:36:38.269Z,98040.76
2022-11-16T15:39:16.698Z,98041.13
2022-11-16T15:41:46.268Z,98039.09
2022-11-16T15:44:17.998Z,98034.97
2022-11-16T15:46:50.650Z,98037.63
2022-11-16T15:49:36.267Z,98040.64
2022-11-16T15:52:05.946Z,98048.26
2022-11-16T15:54:55.622Z,98047.56
2022-11-16T15:57:24.679Z,98047.77
2022-11-16T15:59:55.743Z,98046.41
2022-11-16T16:02:27.602Z,98050.23
2022-11-16T16:04:56.464Z,98051.88
2022-11-16T16:07:42.544Z,98045.27
2022-11-16T16:10:20.231Z,98049.75
2022-11-16T16:12:53.087Z,98055.63
2022-11-16T16:15:24.033Z,98056.67
2022-11-16T16:17:54.188Z,98059.33
2022-11-16T16:20:25.512Z,98061.03
2022-11-16T16:22:54.432Z,98058.82
2022-11-16T16:25:28.707Z,98056.83
2022-11-16T16:27:58.286Z,98057.37
2022-11-16T16:30:28.167Z,98057.69
2022-11-16T16:32:56.571Z,98062.86
2022-11-16T16:35:26.609Z,98058.23
2022-11-16T16:38:00.957Z,98059.71
2022-11-16T16:40:29.952Z,98059.27
2022-11-16T16:42:58.495Z,98063.09
2022-11-16T16:45:41.504Z,98063.50
2022-11-16T16:48:12.652Z,98055.92
2022-11-16T16:50:40.827Z,98054.58
2022-11-16T16:53:12.923Z,98059.70
2022-11-16T16:55:43.940Z,98056.12
2022-11-16T16:58:13.473Z,98057.98
2022-11-16T17:00:42.206Z,98060.48
2022-11-16T17:03:10.725Z,98052.77
2022-11-16T17:05:38.818Z,98058.73
2022-11-16T17:08:07.005Z,98058.27
2022-11-16T17:10:38.426Z,98061.21
2022-11-16T17:13:10.079Z,98059.63
2022-11-16T17:15:38.385Z,98058.56
2022-11-16T17:18:06.428Z,98059.16
2022-11-16T17:20:34.593Z,98057.13
2022-11-16T17:23:04.219Z,98053.71
2022-11-16T17:25:33.133Z,98052.61
2022-11-16T17:28:01.373Z,98056.98
2022-11-16T17:30:29.617Z,98061.83
2022-11-16T17:32:57.674Z,98067.45
2022-11-16T17:35:26.034Z,98064.03
2022-11-16T17:37:54.496Z,98064.36
2022-11-16T17:40:22.658Z,98065.09
2022-11-16T17:42:50.849Z,98060.29
2022-11-16T17:45:19.311Z,98065.02
2022-11-16T17:47:47.478Z,98067.13
2022-11-16T17:50:17.327Z,98067.37
2022-11-16T17:52:45.383Z,98068.52
2022-11-16T17:55:13.569Z,98068.61
2022-11-16T17:57:41.760Z,98068.27
2022-11-16T18:00:11.078Z,98066.33
2022-11-16T18:02:39.187Z,98061.54
2022-11-16T18:05:07.646Z,98055.46
2022-11-16T18:07:37.626Z,98052.78
2022-11-16T18:10:06.314Z,98055.84
2022-11-16T18:12:34.437Z,98055.86
2022-11-16T18:17:51.272Z,98063.48
2022-11-16T18:20:19.577Z,98062.70
2022-11-16T18:22:47.606Z,98064.86
2022-11-16T18:25:16.217Z,98067.19
2022-11-16T18:27:44.402Z,98068.17
2022-11-16T18:30:13.445Z,98069.98
2022-11-16T18:32:41.526Z,98068.17
2022-11-16T18:35:10.070Z,98070.78
2022-11-16T18:37:38.199Z,98076.72
2022-11-16T18:40:07.292Z,98073.30
2022-11-16T18:42:35.853Z,98072.71
2022-11-16T18:45:04.384Z,98073.08
2022-11-16T18:47:32.659Z,98074.55
2022-11-16T18:50:01.973Z,98077.71
2022-11-16T18:52:30.138Z,98079.05
2022-11-16T18:54:58.578Z,98076.77
2022-11-16T18:57:26.848Z,98080.77
2022-11-16T18:59:54.979Z,98084.92
2022-11-16T19:02:23.801Z,98083.56
2022-11-16T19:04:52.350Z,98086.29
2022-11-16T19:07:21.305Z,98085.95
2022-11-16T19:09:51.687Z,98081.95
2022-11-16T19:12:20.056Z,98074.41
2022-11-16T19:14:48.179Z,98071.31
2022-11-16T19:17:16.498Z,98068.34
2022-11-16T19:19:44.795Z,98072.13
2022-11-16T19:22:12.817Z,98072.97
2022-11-16T19:24:41.109Z,98073.85
2022-11-16T19:27:09.379Z,98070.39
2022-11-16T19:29:37.561Z,98070.77
2022-11-16T19:32:05.750Z,98067.30
2022-11-16T19:34:34.497Z,98069.70
2022-11-16T19:37:02.766Z,98071.17
2022-11-16T19:39:31.168Z,98072.56
2022-11-16T19:41:59.818Z,98069.60
2022-11-16T19:44:27.897Z,98064.31
2022-11-16T19:46:56.977Z,98064.02
2022-11-16T19:49:25.952Z,98069.36
2022-11-16T19:51:54.279Z,98065.03
2022-11-16T19:54:22.934Z,98070.88
2022-11-16T19:56:55.079Z,98074.05
2022-11-16T19:59:23.746Z,98070.91
2022-11-16T20:01:52.924Z,98072.78
2022-11-16T20:04:21.552Z,98073.39
2022-11-16T20:06:49.972Z,98074.62
2022-11-16T20:09:21.004Z,98071.69
2022-11-16T20:11:50.475Z,98075.27
2022-11-16T20:14:18.950Z,98076.98
2022-11-16T20:16:49.811Z,98077.99
2022-11-16T20:19:20.244Z,98074.33
2022-11-16T20:21:49.114Z,98075.66
2022-11-16T20:24:18.142Z,98076.40
2022-11-16T20:26:49.191Z,98078.45
2022-11-16T20:29:19.879Z,98083.38
2022-11-16T20:31:52.902Z,98078.74
2022-11-16T20:34:25.059Z,98074.79
2022-11-16T20:36:54.309Z,98082.08
2022-11-16T20:39:22.952Z,98082.52
2022-11-16T20:41:51.559Z,98073.88
2022-11-16T20:44:22.590Z,98072.38
2022-11-16T20:46:52.798Z,98075.11
2022-11-16T20:49:21.605Z,98073.92
2022-11-16T20:51:51.187Z,98072.67
2022-11-16T20:54:19.224Z,98076.23
2022-11-16T20:56:49.676Z,98078.00
2022-11-16T20:59:18.560Z,98073.80
2022-11-16T21:01:49.126Z,98070.87
2022-11-16T21:04:17.925Z,98065.73
2022-11-16T21:06:46.343Z,98064.92
2022-11-16T21:09:22.717Z,98064.64
2022-11-16T21:12:10.250Z,98061.44
2022-11-16T21:14:38.432Z,98060.98
2022-11-16T21:17:06.872Z,98065.58
2022-11-16T21:19:35.427Z,98060.30
2022-11-16T21:22:03.528Z,98052.92
2022-11-16T21:24:32.356Z,98052.19
2022-11-16T21:27:00.671Z,98054.11
2022-11-16T21:29:30.750Z,98061.16
2022-11-16T21:31:58.836Z,98064.50
2022-11-16T21:34:28.678Z,98065.23
2022-11-16T21:36:57.011Z,98064.52
2022-11-16T21:39:25.556Z,98060.96
2022-11-16T21:41:53.909Z,98062.02
2022-11-16T21:44:21.976Z,98060.98
2022-11-16T21:46:50.632Z,98063.52
2022-11-16T21:49:18.879Z,98061.87
2022-11-16T21:51:47.020Z,98068.55
2022-11-16T21:54:15.384Z,98071.85
2022-11-16T21:56:43.415Z,98070.63
2022-11-16T21:59:11.499Z,98070.36
2022-11-16T22:01:59.373Z,98064.42
2022-11-16T22:04:56.595Z,98062.16
2022-11-16T22:07:34.098Z,98061.18
2022-11-16T22:10:10.587Z,98065.62
2022-11-16T22:15:46.475Z,98075.19
2022-11-16T22:18:14.951Z,98076.90
2022-11-16T22:20:47.259Z,98078.89
2022-11-16T22:23:19.992Z,98080.40
2022-11-16T22:25:51.292Z,98087.41
2022-11-16T22:28:21.247Z,98085.75
2022-11-16T22:30:51.962Z,98088.27
2022-11-16T22:33:21.054Z,98092.02
2022-11-16T22:35:49.489Z,98090.84
2022-11-16T22:38:17.753Z,98090.00
2022-11-16T22:40:53.694Z,98089.20
2022-11-16T22:43:24.938Z,98085.81
2022-11-16T22:46:00.803Z,98092.54
2022-11-16T22:48:37.170Z,98083.46
2022-11-16T22:51:07.916Z,98079.76
2022-11-16T22:53:36.621Z,98074.33
2022-11-16T22:56:07.173Z,98073.36
2022-11-16T22:58:39.728Z,98073.23
2022-11-16T23:01:09.588Z,98079.02
2022-11-16T23:03:38.978Z,98078.90
2022-11-16T23:06:08.002Z,98074.14
2022-11-16T23:08:36.959Z,98073.12
2022-11-16T23:11:32.325Z,98074.00
2022-11-16T23:14:19.525Z,98074.34
2022-11-16T23:16:48.488Z,98075.31
2022-11-16T23:19:37.943Z,98069.25
2022-11-16T23:22:26.902Z,98065.84
2022-11-16T23:25:14.355Z,98062.45
2022-11-16T23:27:55.973Z,98063.63
2022-11-16T23:30:26.523Z,98057.77
2022-11-16T23:32:55.440Z,98056.25
2022-11-16T23:35:24.029Z,98050.84
2022-11-16T23:38:03.067Z,98050.42
2022-11-16T23:40:40.465Z,98051.77
2022-11-16T23:43:29.109Z,98055.11
2022-11-16T23:45:57.611Z,98050.17
2022-11-16T23:48:25.860Z,98047.54
2022-11-16T23:50:54.127Z,98048.55
2022-11-16T23:53:22.499Z,98052.75
2022-11-16T23:55:51.381Z,98053.79
2022-11-16T23:58:19.673Z,98058.90
